createdAt,value
2018-12-14T04:29:13.908Z,3.70
2018-12-14T04:31:46.816Z,3.80
2018-12-14T04:34:19.337Z,3.80
2018-12-14T04:36:51.733Z,3.70
2018-12-14T04:39:26.536Z,3.70
2018-12-14T04:41:59.041Z,3.80
2018-12-14T04:44:29.308Z,3.70
2018-12-14T04:47:01.813Z,3.80
2018-12-14T04:49:34.458Z,3.80
2018-12-14T04:52:10.980Z,3.80
2018-12-14T04:54:43.277Z,3.80
2018-12-14T04:57:16.495Z,3.70
2018-12-14T04:59:48.584Z,3.80
2018-12-14T05:02:21.491Z,3.80
2018-12-14T05:04:53.669Z,3.70
2018-12-14T05:07:26.193Z,3.80
2018-12-14T05:09:58.464Z,3.80
2018-12-14T05:12:32.992Z,3.80
2018-12-14T05:15:06.622Z,3.80
2018-12-14T05:17:39.090Z,3.70
2018-12-14T05:20:11.809Z,3.80
2018-12-14T05:22:43.983Z,3.80
2018-12-14T05:25:16.861Z,3.80
2018-12-14T05:27:50.666Z,3.80
2018-12-14T05:30:23.868Z,3.90
2018-12-14T05:32:56.860Z,4.00
2018-12-14T05:35:29.130Z,3.80
2018-12-14T05:38:01.640Z,3.80
2018-12-14T05:40:33.889Z,3.80
2018-12-14T05:43:06.471Z,3.90
2018-12-14T05:45:38.733Z,3.80
2018-12-14T05:48:11.172Z,3.80
2018-12-14T05:50:43.801Z,3.70
2018-12-14T05:53:14.309Z,3.70
2018-12-14T05:55:46.900Z,3.90
2018-12-14T05:58:19.470Z,3.90
2018-12-14T06:00:52.038Z,3.80
2018-12-14T06:03:25.160Z,3.80
2018-12-14T06:05:58.049Z,3.80
2018-12-14T06:08:32.927Z,3.80
2018-12-14T06:11:05.641Z,3.90
2018-12-14T06:13:38.085Z,3.90
2018-12-14T06:16:08.284Z,3.90
2018-12-14T06:18:40.713Z,4.00
2018-12-14T06:21:12.992Z,4.00
2018-12-14T06:23:45.602Z,4.00
2018-12-14T06:26:18.457Z,4.00
2018-12-14T06:28:50.856Z,4.00
2018-12-14T06:31:25.619Z,4.10
2018-12-14T06:33:57.721Z,3.90
2018-12-14T06:36:30.397Z,3.80
2018-12-14T06:39:04.929Z,3.80
2018-12-14T06:44:36.985Z,3.80
2018-12-14T06:47:09.967Z,3.80
2018-12-14T06:49:44.478Z,3.80
2018-12-14T06:52:14.655Z,3.80
2018-12-14T06:54:46.850Z,3.80
2018-12-14T06:57:23.033Z,3.80
2018-12-14T06:59:55.164Z,3.80
2018-12-14T07:02:27.709Z,3.70
2018-12-14T07:04:59.948Z,3.70
2018-12-14T07:07:32.969Z,3.80
2018-12-14T07:10:09.826Z,3.80
2018-12-14T07:12:42.758Z,3.80
2018-12-14T07:15:15.245Z,3.80
2018-12-14T07:17:47.609Z,3.70
2018-12-14T07:20:17.739Z,3.70
2018-12-14T07:22:50.016Z,3.70
2018-12-14T07:25:22.667Z,3.80
2018-12-14T07:27:57.204Z,3.90
2018-12-14T07:30:30.141Z,3.90
2018-12-14T07:33:00.809Z,3.90
2018-12-14T07:35:33.789Z,3.90
2018-12-14T07:38:06.198Z,3.90
2018-12-14T07:40:38.441Z,4.00
2018-12-14T07:43:10.658Z,3.90
2018-12-14T07:45:41.281Z,3.90
2018-12-14T07:48:13.551Z,4.00
2018-12-14T07:50:46.461Z,4.10
2018-12-14T07:53:19.437Z,3.90
2018-12-14T07:55:52.536Z,3.90
2018-12-14T07:58:25.075Z,3.80
2018-12-14T08:00:57.684Z,3.80
2018-12-14T08:03:30.555Z,3.80
2018-12-14T08:06:03.144Z,3.80
2018-12-14T08:08:36.145Z,3.70
2018-12-14T08:11:08.910Z,3.70
2018-12-14T08:13:41.304Z,3.80
2018-12-14T08:16:13.465Z,3.90
2018-12-14T08:18:45.546Z,3.90
2018-12-14T08:21:17.836Z,3.80
2018-12-14T08:23:49.916Z,3.90
2018-12-14T08:26:22.401Z,3.90
2018-12-14T08:28:54.645Z,3.90
2018-12-14T08:31:26.772Z,3.90
2018-12-14T08:33:59.345Z,3.90
2018-12-14T08:36:31.733Z,3.90
2018-12-14T08:39:06.041Z,4.00
2018-12-14T08:41:39.179Z,4.00
2018-12-14T08:44:11.443Z,4.00
2018-12-14T08:46:43.907Z,4.10
2018-12-14T08:49:16.884Z,4.00
2018-12-14T08:51:49.292Z,3.90
2018-12-14T08:54:22.429Z,3.90
2018-12-14T08:56:54.916Z,3.90
2018-12-14T08:59:27.152Z,3.90
2018-12-14T09:02:01.596Z,3.90
2018-12-14T09:04:33.650Z,3.80
2018-12-14T09:07:06.291Z,3.70
2018-12-14T09:09:39.250Z,3.90
2018-12-14T09:12:11.635Z,4.00
2018-12-14T09:14:46.979Z,4.00
2018-12-14T09:17:19.375Z,3.90
2018-12-14T09:19:51.562Z,4.00
2018-12-14T09:22:23.677Z,3.90
2018-12-14T09:24:56.061Z,3.90
2018-12-14T09:27:28.366Z,3.90
2018-12-14T09:30:01.009Z,3.90
2018-12-14T09:32:34.227Z,3.90
2018-12-14T09:35:07.381Z,3.90
2018-12-14T09:37:40.190Z,3.90
2018-12-14T09:40:12.588Z,3.90
2018-12-14T09:42:44.999Z,3.90
2018-12-14T09:45:17.516Z,4.10
2018-12-14T09:47:50.148Z,4.00
2018-12-14T09:50:22.662Z,3.80
2018-12-14T09:52:55.208Z,3.90
2018-12-14T09:55:27.824Z,3.80
2018-12-14T09:58:00.461Z,3.80
2018-12-14T10:00:33.290Z,3.90
2018-12-14T10:03:05.743Z,3.90
2018-12-14T10:05:37.929Z,3.90
2018-12-14T10:08:10.515Z,3.90
2018-12-14T10:10:42.846Z,4.00
2018-12-14T10:13:15.480Z,4.00
2018-12-14T10:15:44.558Z,4.00
2018-12-14T10:18:13.795Z,4.10
2018-12-14T10:20:48.358Z,4.10
2018-12-14T10:23:21.326Z,4.10
2018-12-14T10:25:54.534Z,4.20
2018-12-14T10:28:27.034Z,4.10
2018-12-14T10:31:00.157Z,4.10
2018-12-14T10:33:31.152Z,4.20
2018-12-14T10:36:03.823Z,4.20
2018-12-14T10:38:36.075Z,4.20
2018-12-14T10:41:08.344Z,4.20
2018-12-14T10:43:41.162Z,4.30
2018-12-14T10:46:13.764Z,4.20
2018-12-14T10:48:44.165Z,4.30
2018-12-14T10:51:16.433Z,4.20
2018-12-14T10:53:49.064Z,4.10
2018-12-14T10:56:21.309Z,4.10
2018-12-14T10:58:53.843Z,4.20
2018-12-14T11:01:32.392Z,4.20
2018-12-14T11:04:04.834Z,4.20
2018-12-14T11:06:37.636Z,4.20
2018-12-14T11:09:10.144Z,4.00
2018-12-14T11:11:43.123Z,4.20
2018-12-14T11:14:15.917Z,4.00
2018-12-14T11:16:48.424Z,4.00
2018-12-14T11:19:20.958Z,4.10
2018-12-14T11:21:53.140Z,4.00
2018-12-14T11:24:23.493Z,4.10
2018-12-14T11:26:55.580Z,4.20
2018-12-14T11:29:27.869Z,4.10
2018-12-14T11:32:01.049Z,4.20
2018-12-14T11:34:33.511Z,4.20
2018-12-14T11:37:05.636Z,4.20
2018-12-14T11:39:38.308Z,4.20
2018-12-14T11:42:10.837Z,4.20
2018-12-14T11:44:43.060Z,4.20
2018-12-14T11:47:18.350Z,4.10
2018-12-14T11:49:50.932Z,4.20
2018-12-14T11:52:23.619Z,4.20
2018-12-14T11:54:55.843Z,4.30
2018-12-14T11:57:28.511Z,4.00
2018-12-14T12:00:00.773Z,3.90
2018-12-14T12:02:33.821Z,4.00
2018-12-14T12:05:06.624Z,4.00
2018-12-14T12:07:40.647Z,4.00
2018-12-14T12:10:18.776Z,4.00
2018-12-14T12:12:57.295Z,4.10
2018-12-14T12:15:31.923Z,4.20
2018-12-14T12:18:07.099Z,4.20
2018-12-14T12:20:43.358Z,4.20
2018-12-14T12:23:16.631Z,4.20
2018-12-14T12:25:54.723Z,4.10
2018-12-14T12:28:34.548Z,4.20
2018-12-14T12:31:06.563Z,4.20
2018-12-14T12:33:40.001Z,4.10
2018-12-14T12:36:23.487Z,4.10
2018-12-14T12:38:58.028Z,4.10
2018-12-14T12:41:33.801Z,4.20
2018-12-14T12:44:10.893Z,4.10
2018-12-14T12:46:45.567Z,4.10
2018-12-14T12:49:22.347Z,4.10
2018-12-14T12:51:57.491Z,4.10
2018-12-14T12:54:30.416Z,4.00
2018-12-14T12:57:03.557Z,4.10
2018-12-14T12:59:36.727Z,4.20
2018-12-14T13:02:09.764Z,4.00
2018-12-14T13:04:43.532Z,4.10
2018-12-14T13:07:16.549Z,4.20
2018-12-14T13:09:49.617Z,4.20
2018-12-14T13:12:24.440Z,4.10
2018-12-14T13:14:57.122Z,4.20
2018-12-14T13:17:30.428Z,4.20
2018-12-14T13:20:05.465Z,4.20
2018-12-14T13:22:38.758Z,4.20
2018-12-14T13:25:12.000Z,4.20
2018-12-14T13:27:48.009Z,4.30
2018-12-14T13:30:20.727Z,4.40
2018-12-14T13:32:53.427Z,4.50
2018-12-14T13:35:28.412Z,4.50
2018-12-14T13:38:04.221Z,4.20
2018-12-14T13:40:41.008Z,4.30
2018-12-14T13:43:13.196Z,4.10
2018-12-14T13:45:45.492Z,4.20
2018-12-14T13:48:17.944Z,4.10
2018-12-14T13:50:53.450Z,4.10
2018-12-14T13:53:26.513Z,4.00
2018-12-14T13:56:01.583Z,4.10
2018-12-14T13:58:34.466Z,4.10
2018-12-14T14:01:07.299Z,4.20
2018-12-14T14:03:42.078Z,4.30
2018-12-14T14:06:14.493Z,4.30
2018-12-14T14:08:46.782Z,4.30
2018-12-14T14:11:20.377Z,4.20
2018-12-14T14:13:52.875Z,4.30
2018-12-14T14:16:23.364Z,4.20
2018-12-14T14:18:55.675Z,4.20
2018-12-14T14:21:27.195Z,4.20
2018-12-14T14:23:59.616Z,4.20
2018-12-14T14:26:32.532Z,4.10
2018-12-14T14:29:07.923Z,4.10
2018-12-14T14:31:43.344Z,4.10
2018-12-14T14:34:17.429Z,4.10
2018-12-14T14:36:52.217Z,4.10
2018-12-14T14:39:26.007Z,4.10
2018-12-14T14:42:03.250Z,4.10
2018-12-14T14:44:42.490Z,4.00
2018-12-14T14:47:16.232Z,4.00
2018-12-14T14:49:49.378Z,4.10
2018-12-14T14:52:21.831Z,4.00
2018-12-14T14:54:54.549Z,4.00
2018-12-14T14:57:28.355Z,3.90
2018-12-14T15:00:01.439Z,4.00
2018-12-14T15:02:34.525Z,4.00
2018-12-14T15:05:07.164Z,4.00
2018-12-14T15:07:40.200Z,3.80
2018-12-14T15:10:13.287Z,4.00
2018-12-14T15:12:45.526Z,3.90
2018-12-14T15:15:18.564Z,3.90
2018-12-14T15:17:51.945Z,4.00
2018-12-14T15:20:26.242Z,4.00
2018-12-14T15:22:56.675Z,4.00
2018-12-14T15:25:30.186Z,4.00
2018-12-14T15:28:02.579Z,4.00
2018-12-14T15:30:35.253Z,4.10
2018-12-14T15:33:08.242Z,4.10
2018-12-14T15:35:40.369Z,4.10
2018-12-14T15:38:12.843Z,4.20
2018-12-14T15:40:44.995Z,4.20
2018-12-14T15:43:18.171Z,4.20
2018-12-14T15:45:50.577Z,4.30
2018-12-14T15:48:23.730Z,4.30
2018-12-14T15:50:56.384Z,4.30
2018-12-14T15:53:29.670Z,4.30
2018-12-14T15:56:02.202Z,4.30
2018-12-14T15:58:34.781Z,4.30
2018-12-14T16:01:09.837Z,4.40
2018-12-14T16:03:45.006Z,4.30
2018-12-14T16:06:24.697Z,4.30
2018-12-14T16:08:58.215Z,4.30
2018-12-14T16:11:30.955Z,4.20
2018-12-14T16:14:05.941Z,4.00
2018-12-14T16:16:44.300Z,4.10
2018-12-14T16:19:18.135Z,4.10
2018-12-14T16:21:54.122Z,4.10
2018-12-14T16:24:26.753Z,4.20
2018-12-14T16:27:01.051Z,4.10
2018-12-14T16:29:34.905Z,4.00
2018-12-14T16:32:07.859Z,4.00
2018-12-14T16:34:38.825Z,4.00
2018-12-14T16:39:58.976Z,4.10
2018-12-14T16:42:31.012Z,4.10
2018-12-14T16:45:08.664Z,4.10
2018-12-14T16:47:44.542Z,4.10
2018-12-14T16:50:22.064Z,4.00
2018-12-14T16:52:56.639Z,4.00
2018-12-14T16:55:32.610Z,4.10
2018-12-14T16:58:12.713Z,4.10
2018-12-14T17:00:53.153Z,4.10
2018-12-14T17:03:40.644Z,4.10
2018-12-14T17:06:24.298Z,4.00
2018-12-14T17:08:57.158Z,4.00
2018-12-14T17:11:30.144Z,3.90
2018-12-14T17:14:02.674Z,3.80
2018-12-14T17:16:35.261Z,3.90
2018-12-14T17:19:07.918Z,3.90
2018-12-14T17:21:40.331Z,3.90
2018-12-14T17:24:12.433Z,3.80
2018-12-14T17:26:44.571Z,3.90
2018-12-14T17:29:23.670Z,3.90
2018-12-14T17:31:56.369Z,3.90
2018-12-14T17:34:28.787Z,3.80
2018-12-14T17:37:01.113Z,3.80
2018-12-14T17:39:37.753Z,3.70
2018-12-14T17:42:11.853Z,3.60
2018-12-14T17:44:44.208Z,3.70
2018-12-14T17:47:16.539Z,3.80
2018-12-14T17:49:48.996Z,3.70
2018-12-14T17:52:24.497Z,3.80
2018-12-14T17:54:55.438Z,3.90
2018-12-14T17:57:27.486Z,3.90
2018-12-14T18:00:00.283Z,3.90
2018-12-14T18:02:34.863Z,3.80
2018-12-14T18:05:05.900Z,3.80
2018-12-14T18:07:38.072Z,3.80
2018-12-14T18:10:10.300Z,3.90
2018-12-14T18:12:43.313Z,3.90
2018-12-14T18:15:15.559Z,3.70
2018-12-14T18:17:48.543Z,3.70
2018-12-14T18:20:22.559Z,3.80
2018-12-14T18:23:00.070Z,3.70
2018-12-14T18:25:33.528Z,3.80
2018-12-14T18:28:08.398Z,3.80
2018-12-14T18:30:37.527Z,3.80
2018-12-14T18:33:10.847Z,3.70
2018-12-14T18:35:44.179Z,3.70
2018-12-14T18:38:26.365Z,3.70
2018-12-14T18:41:02.632Z,3.70
2018-12-14T18:43:38.144Z,3.60
2018-12-14T18:46:11.643Z,3.70
2018-12-14T18:48:46.737Z,3.70
2018-12-14T18:51:19.842Z,3.70
2018-12-14T18:53:56.396Z,3.70
2018-12-14T18:56:29.423Z,3.80
2018-12-14T18:59:00.366Z,3.90
2018-12-14T19:01:33.286Z,3.80
2018-12-14T19:04:09.072Z,3.90
2018-12-14T19:06:45.329Z,4.00
2018-12-14T19:09:19.451Z,3.80
2018-12-14T19:11:54.056Z,3.70
2018-12-14T19:14:26.763Z,3.70
2018-12-14T19:16:59.980Z,3.90
2018-12-14T19:19:37.387Z,3.80
2018-12-14T19:22:10.786Z,3.90
2018-12-14T19:24:52.267Z,3.90
2018-12-14T19:27:26.883Z,3.90
2018-12-14T19:30:00.221Z,3.90
2018-12-14T19:32:39.752Z,3.90
2018-12-14T19:35:15.358Z,3.90
2018-12-14T19:37:46.436Z,3.90
2018-12-14T19:40:18.772Z,3.90
2018-12-14T19:42:51.038Z,4.00
2018-12-14T19:45:21.654Z,3.90
2018-12-14T19:47:54.287Z,3.90
2018-12-14T19:50:28.003Z,3.90
2018-12-14T19:53:02.225Z,4.00
2018-12-14T19:55:35.358Z,4.00
2018-12-14T19:58:08.337Z,4.00
2018-12-14T20:00:41.158Z,4.00
2018-12-14T20:03:14.239Z,4.00
2018-12-14T20:05:47.344Z,3.90
2018-12-14T20:08:18.504Z,3.80
2018-12-14T20:10:51.350Z,3.80
2018-12-14T20:13:24.031Z,3.90
2018-12-14T20:15:57.926Z,3.90
2018-12-14T20:18:30.690Z,3.80
2018-12-14T20:21:03.850Z,3.80
2018-12-14T20:23:41.547Z,3.90
2018-12-14T20:26:14.132Z,4.00
2018-12-14T20:28:46.597Z,4.10
2018-12-14T20:31:19.422Z,3.90
2018-12-14T20:33:52.553Z,3.90
2018-12-14T20:36:26.015Z,3.90
2018-12-14T20:38:58.515Z,4.00
2018-12-14T20:41:30.741Z,3.80
2018-12-14T20:44:09.367Z,3.80
2018-12-14T20:46:45.302Z,3.90
2018-12-14T20:49:15.656Z,3.80
2018-12-14T20:51:47.762Z,3.70
2018-12-14T20:54:20.502Z,3.80
2018-12-14T20:56:52.861Z,3.70
2018-12-14T20:59:27.159Z,3.80
2018-12-14T21:02:02.404Z,3.80
2018-12-14T21:04:36.099Z,3.70
2018-12-14T21:07:09.149Z,3.80
2018-12-14T21:09:41.560Z,3.80
2018-12-14T21:12:15.322Z,3.90
2018-12-14T21:14:51.007Z,3.80
2018-12-14T21:17:23.100Z,3.80
2018-12-14T21:19:56.613Z,3.80
2018-12-14T21:22:28.725Z,3.90
2018-12-14T21:25:01.325Z,3.90
2018-12-14T21:27:34.991Z,4.00
2018-12-14T21:30:09.043Z,3.90
2018-12-14T21:32:41.872Z,3.90
2018-12-14T21:35:15.215Z,4.00
2018-12-14T21:37:47.350Z,4.00
2018-12-14T21:40:20.063Z,3.90
2018-12-14T21:42:52.859Z,4.00
2018-12-14T21:45:25.776Z,4.00
2018-12-14T21:47:58.990Z,4.00
2018-12-14T21:50:31.723Z,3.90
2018-12-14T21:53:04.855Z,4.00
2018-12-14T21:55:37.086Z,4.00
2018-12-14T21:58:09.682Z,4.20
2018-12-14T22:00:42.254Z,4.10
2018-12-14T22:03:15.262Z,4.10
2018-12-14T22:05:47.462Z,4.00
2018-12-14T22:08:19.540Z,3.90
2018-12-14T22:10:53.864Z,3.90
2018-12-14T22:13:27.881Z,4.00
2018-12-14T22:16:01.205Z,4.10
2018-12-14T22:18:34.923Z,4.00
2018-12-14T22:21:07.667Z,4.10
2018-12-14T22:23:40.145Z,4.00
2018-12-14T22:29:09.534Z,4.00
2018-12-14T22:31:45.016Z,4.00
2018-12-14T22:34:19.025Z,4.00
2018-12-14T22:36:57.599Z,4.10
2018-12-14T22:39:30.527Z,4.00
2018-12-14T22:42:02.651Z,3.90
2018-12-14T22:44:41.447Z,3.90
2018-12-14T22:47:14.365Z,4.00
2018-12-14T22:54:51.767Z,4.00
2018-12-14T22:57:23.867Z,3.90
2018-12-14T22:59:56.047Z,4.10
2018-12-14T23:02:28.776Z,4.10
2018-12-14T23:05:01.993Z,4.00
2018-12-14T23:07:34.496Z,3.90
2018-12-14T23:10:09.016Z,4.00
2018-12-14T23:12:41.169Z,4.00
2018-12-14T23:15:13.748Z,4.00
2018-12-14T23:17:49.103Z,4.10
2018-12-14T23:20:25.934Z,4.10
2018-12-14T23:22:58.525Z,4.00
2018-12-14T23:25:31.333Z,4.10
2018-12-14T23:28:02.374Z,4.00
2018-12-14T23:30:35.023Z,4.10
2018-12-14T23:33:07.256Z,4.10
2018-12-14T23:35:39.859Z,4.20
2018-12-14T23:38:12.582Z,4.20
2018-12-14T23:40:51.214Z,4.20
2018-12-14T23:43:24.135Z,4.10
2018-12-14T23:45:56.612Z,4.10
2018-12-14T23:48:33.025Z,4.00
2018-12-14T23:51:05.857Z,4.10
2018-12-14T23:53:38.478Z,4.10
2018-12-14T23:56:11.728Z,4.10
2018-12-14T23:58:44.626Z,4.00
